Time;durP1;ratioP1;P1;durP2;ratioP2;P2;SDS_P1;SDS_P2;PMS_P1;PMS_P2;Temp;Humidity;BMP_temperature;BMP_pressure;BME280_temperature;BME280_humidity;BME280_pressure;Samples;Min_cycle;Max_cycle;Signal;HPM_P1;HPM_P2
2022/01/05 00:00:36;;;;;;;0.90;0.90;;;1.60;99.90;;;;;;4928370;28;20435;-88
2022/01/05 00:03:04;;;;;;;0.73;0.73;;;1.60;99.90;;;;;;4946709;28;20219;-88
2022/01/05 00:05:30;;;;;;;0.83;0.83;;;1.60;99.90;;;;;;4949865;28;20194;-88
2022/01/05 00:07:55;;;;;;;0.70;0.70;;;1.60;99.90;;;;;;4929171;29;20453;-88
2022/01/05 00:10:21;;;;;;;0.80;0.80;;;1.60;99.90;;;;;;4949205;28;20486;-88
2022/01/05 00:12:46;;;;;;;0.90;0.90;;;1.70;99.90;;;;;;4952688;28;20207;-88
2022/01/05 00:15:12;;;;;;;0.80;0.80;;;1.70;99.90;;;;;;4951331;28;20253;-88
2022/01/05 00:17:37;;;;;;;2.80;1.20;;;1.70;99.90;;;;;;4949689;28;20813;-88
2022/01/05 00:20:04;;;;;;;0.80;0.80;;;1.60;99.90;;;;;;4946467;28;20210;-88
2022/01/05 00:22:30;;;;;;;0.80;0.80;;;1.70;99.90;;;;;;4951669;28;20191;-88
2022/01/05 00:24:56;;;;;;;0.80;0.80;;;1.70;99.90;;;;;;4951121;28;20987;-88
2022/01/05 00:27:21;;;;;;;0.80;0.73;;;1.70;99.90;;;;;;4953602;28;20190;-88
2022/01/05 00:29:47;;;;;;;0.80;0.70;;;1.70;99.90;;;;;;4939580;28;20250;-89
2022/01/05 00:32:13;;;;;;;0.80;0.70;;;1.70;99.90;;;;;;4926948;29;20834;-88
2022/01/05 00:34:39;;;;;;;0.90;0.90;;;1.70;99.90;;;;;;4947287;28;20969;-88
2022/01/05 00:37:05;;;;;;;0.90;0.90;;;1.70;99.90;;;;;;4952498;29;20446;-89
2022/01/05 00:39:31;;;;;;;0.80;0.80;;;1.70;99.90;;;;;;4931728;28;20202;-89
2022/01/05 00:41:56;;;;;;;0.80;0.70;;;1.70;99.90;;;;;;4933700;29;20461;-89
2022/01/05 00:44:34;;;;;;;0.90;0.90;;;1.70;99.90;;;;;;4950183;28;20194;-88
2022/01/05 00:47:00;;;;;;;0.80;0.80;;;1.80;99.90;;;;;;4953830;28;20195;-88
2022/01/05 00:49:25;;;;;;;0.80;0.80;;;1.80;99.90;;;;;;4948589;28;20489;-89
2022/01/05 00:52:04;;;;;;;0.80;0.80;;;1.80;99.90;;;;;;4955943;28;20192;-88
2022/01/05 00:54:29;;;;;;;0.80;0.80;;;1.90;99.90;;;;;;4958182;28;20214;-87
2022/01/05 00:57:24;;;;;;;0.87;0.87;;;1.90;99.90;;;;;;4925108;29;20946;-87
2022/01/05 00:59:50;;;;;;;0.80;0.80;;;1.90;99.90;;;;;;4949421;28;20211;-88
2022/01/05 01:02:16;;;;;;;0.80;0.80;;;2.00;99.90;;;;;;4945103;28;20837;-89
2022/01/05 01:04:41;;;;;;;0.80;0.77;;;1.90;99.90;;;;;;4950120;28;20203;-88
2022/01/05 01:07:07;;;;;;;1.33;1.23;;;1.90;99.90;;;;;;4930499;29;20580;-88
2022/01/05 01:09:32;;;;;;;0.80;0.80;;;1.90;99.90;;;;;;4951026;28;20225;-89
2022/01/05 01:11:58;;;;;;;0.70;0.70;;;1.80;99.90;;;;;;4947048;28;20596;-89
2022/01/05 01:14:24;;;;;;;0.80;0.80;;;1.90;99.90;;;;;;4950450;28;20243;-88
2022/01/05 01:16:49;;;;;;;0.77;0.70;;;1.80;99.90;;;;;;4950544;28;20281;-88
2022/01/05 01:19:15;;;;;;;0.80;0.70;;;1.80;99.90;;;;;;4934389;29;20545;-86
2022/01/05 01:21:41;;;;;;;0.90;0.90;;;1.90;99.90;;;;;;4948653;28;20191;-88
2022/01/05 01:24:06;;;;;;;0.80;0.80;;;1.90;99.90;;;;;;4951656;28;20694;-88
2022/01/05 01:26:33;;;;;;;0.80;0.80;;;1.90;99.90;;;;;;4957030;28;20193;-88
2022/01/05 01:28:59;;;;;;;0.80;0.80;;;1.80;99.90;;;;;;4948193;28;20702;-86
2022/01/05 01:31:26;;;;;;;0.80;0.80;;;1.70;99.90;;;;;;4951026;28;20454;-85
2022/01/05 01:33:52;;;;;;;0.90;0.90;;;1.60;99.90;;;;;;4949107;28;20456;-85
2022/01/05 01:36:18;;;;;;;0.80;0.80;;;1.70;99.90;;;;;;4946816;28;20435;-84
2022/01/05 01:38:44;;;;;;;0.80;0.80;;;1.70;99.90;;;;;;4949586;28;20450;-84
2022/01/05 01:41:11;;;;;;;0.80;0.80;;;1.70;99.90;;;;;;4934317;28;20816;-84
2022/01/05 01:43:37;;;;;;;0.80;0.80;;;1.70;99.90;;;;;;4951099;28;20441;-83
2022/01/05 01:46:04;;;;;;;0.83;0.83;;;1.70;99.90;;;;;;4938495;28;20490;-84
2022/01/05 01:48:30;;;;;;;0.80;0.80;;;1.70;99.90;;;;;;4942121;28;20446;-84
2022/01/05 01:50:55;;;;;;;0.80;0.70;;;1.70;99.90;;;;;;4931150;28;20496;-84
2022/01/05 01:53:21;;;;;;;0.70;0.70;;;1.60;99.90;;;;;;4928817;28;20431;-84
2022/01/05 01:55:49;;;;;;;0.80;0.80;;;1.70;99.90;;;;;;4945281;28;20930;-84
2022/01/05 01:58:17;;;;;;;0.80;0.80;;;1.60;99.90;;;;;;4929863;28;20299;-84
2022/01/05 02:00:43;;;;;;;0.70;0.70;;;1.60;99.90;;;;;;4953072;28;20520;-84
2022/01/05 02:03:09;;;;;;;0.77;0.77;;;1.60;99.90;;;;;;4947777;28;20435;-83
2022/01/05 02:05:35;;;;;;;0.80;0.80;;;1.50;99.90;;;;;;4945806;28;20183;-84
2022/01/05 02:08:02;;;;;;;0.70;0.70;;;1.50;99.90;;;;;;4924546;29;20442;-85
2022/01/05 02:10:28;;;;;;;0.77;0.77;;;1.50;99.90;;;;;;4933255;29;20225;-84
2022/01/05 02:12:53;;;;;;;0.70;0.70;;;1.50;99.90;;;;;;4941064;28;20466;-84
2022/01/05 02:15:20;;;;;;;0.80;0.80;;;1.50;99.90;;;;;;4945283;28;20186;-84
2022/01/05 02:18:07;;;;;;;0.80;0.80;;;1.50;99.90;;;;;;4949750;28;20554;-84
2022/01/05 02:20:33;;;;;;;0.73;0.73;;;1.50;99.90;;;;;;4950464;28;20464;-84
2022/01/05 02:22:59;;;;;;;0.80;0.80;;;1.50;99.90;;;;;;4933138;29;20568;-84
2022/01/05 02:25:35;;;;;;;0.73;0.73;;;1.60;99.90;;;;;;4933740;28;20524;-84
2022/01/05 02:28:01;;;;;;;0.80;0.80;;;1.60;99.90;;;;;;4949884;28;20210;-84
2022/01/05 02:30:29;;;;;;;0.80;0.80;;;1.60;99.90;;;;;;4943830;28;20493;-84
2022/01/05 02:32:55;;;;;;;0.80;0.80;;;1.60;99.90;;;;;;4929540;28;20601;-84
2022/01/05 02:35:21;;;;;;;0.70;0.70;;;1.60;99.90;;;;;;4947224;28;20439;-85
2022/01/05 02:40:52;;;;;;;0.80;0.77;;;1.70;99.90;;;;;;4942624;28;20446;-84
2022/01/05 02:43:18;;;;;;;0.80;0.80;;;1.70;99.90;;;;;;4951984;28;20572;-85
2022/01/05 02:45:44;;;;;;;0.80;0.70;;;1.60;99.90;;;;;;4950840;28;20974;-84
2022/01/05 02:48:09;;;;;;;0.80;0.80;;;1.60;99.90;;;;;;4948983;28;20257;-85
2022/01/05 02:50:44;;;;;;;0.70;0.67;;;1.60;99.90;;;;;;4949017;28;20231;-85
2022/01/05 02:53:28;;;;;;;0.70;0.70;;;1.60;99.90;;;;;;4934599;28;20206;-85
2022/01/05 02:55:54;;;;;;;0.80;0.80;;;1.60;99.90;;;;;;4927152;29;20446;-85
2022/01/05 02:58:32;;;;;;;0.80;0.80;;;1.60;99.90;;;;;;4953808;28;20877;-85
2022/01/05 03:00:57;;;;;;;0.80;0.80;;;1.60;99.90;;;;;;4949886;28;20202;-85
2022/01/05 03:03:23;;;;;;;0.97;0.97;;;1.60;99.90;;;;;;4951641;28;20438;-86
2022/01/05 03:05:49;;;;;;;1.20;1.10;;;1.60;99.90;;;;;;4952536;28;20201;-86
2022/01/05 03:08:15;;;;;;;0.80;0.80;;;1.70;99.90;;;;;;4950015;28;20194;-86
2022/01/05 03:10:41;;;;;;;0.80;0.80;;;1.70;99.90;;;;;;4924252;29;20219;-86
2022/01/05 03:13:07;;;;;;;0.80;0.80;;;1.70;99.90;;;;;;4953956;28;20787;-86
2022/01/05 03:15:35;;;;;;;0.77;0.70;;;1.70;99.90;;;;;;4950543;28;20189;-86
2022/01/05 03:18:04;;;;;;;0.70;0.70;;;1.80;99.90;;;;;;4946506;28;20186;-87
2022/01/05 03:20:31;;;;;;;0.80;0.70;;;1.80;99.90;;;;;;4953150;28;20450;-86
2022/01/05 03:22:59;;;;;;;0.80;0.80;;;1.80;99.90;;;;;;4947018;28;20435;-86
2022/01/05 03:25:25;;;;;;;0.70;0.70;;;1.80;99.90;;;;;;4948966;28;20489;-87
2022/01/05 03:27:52;;;;;;;0.90;0.90;;;1.80;99.90;;;;;;4953821;28;20457;-87
2022/01/05 03:30:53;;;;;;;0.80;0.80;;;1.80;99.90;;;;;;4933336;29;20553;-87
2022/01/05 03:33:21;;;;;;;0.90;0.90;;;1.80;99.90;;;;;;4948211;28;20455;-87
2022/01/05 03:35:48;;;;;;;0.70;0.70;;;1.80;99.90;;;;;;4950578;28;20446;-88
2022/01/05 03:38:34;;;;;;;;;;;;;;;;;;;;;
2022/01/05 03:41:00;;;;;;;0.90;0.90;;;1.80;99.90;;;;;;4946910;28;20522;-88
2022/01/05 03:43:25;;;;;;;0.87;0.87;;;1.80;99.90;;;;;;4948428;28;20553;-88
2022/01/05 03:45:51;;;;;;;1.20;1.10;;;1.80;99.90;;;;;;4949417;28;20245;-88
2022/01/05 03:48:20;;;;;;;0.90;0.90;;;1.90;99.90;;;;;;4946735;28;20242;-89
2022/01/05 03:50:46;;;;;;;0.80;0.80;;;1.90;99.90;;;;;;4934114;28;20726;-88
2022/01/05 03:56:02;;;;;;;0.80;0.80;;;1.90;99.90;;;;;;4921006;28;20513;-86
2022/01/05 03:58:56;;;;;;;0.70;0.70;;;1.90;99.90;;;;;;4952396;28;21029;-86
2022/01/05 04:01:21;;;;;;;0.80;0.80;;;1.90;99.90;;;;;;4947147;28;20454;-84
2022/01/05 04:03:47;;;;;;;0.80;0.80;;;1.80;99.90;;;;;;4933872;28;20493;-85
2022/01/05 04:06:12;;;;;;;0.70;0.60;;;1.90;99.90;;;;;;4949629;28;20190;-83
2022/01/05 04:08:38;;;;;;;0.80;0.70;;;1.90;99.90;;;;;;4951226;28;20269;-84
2022/01/05 04:11:04;;;;;;;0.70;0.70;;;1.90;99.90;;;;;;4946942;28;20703;-84
2022/01/05 04:13:29;;;;;;;0.80;0.80;;;1.90;99.90;;;;;;4952525;28;20186;-84
2022/01/05 04:16:40;;;;;;;0.70;0.70;;;1.90;99.90;;;;;;4926901;29;20277;-85
2022/01/05 04:21:58;;;;;;;0.73;0.70;;;1.90;99.90;;;;;;4949719;28;20461;-85
2022/01/05 04:24:24;;;;;;;0.87;0.87;;;1.80;99.90;;;;;;4959427;28;20456;-84
2022/01/05 04:26:49;;;;;;;0.80;0.80;;;1.80;99.90;;;;;;4951394;28;20447;-84
2022/01/05 04:29:15;;;;;;;0.80;0.80;;;1.80;99.90;;;;;;4949863;28;20714;-84
2022/01/05 04:31:50;;;;;;;1.30;1.20;;;1.80;99.90;;;;;;4951435;28;20273;-84
2022/01/05 04:34:15;;;;;;;0.70;0.70;;;1.70;99.90;;;;;;4948753;28;20281;-83
2022/01/05 04:36:55;;;;;;;0.80;0.80;;;1.60;99.90;;;;;;4929204;28;20537;-84
2022/01/05 04:39:20;;;;;;;0.80;0.80;;;1.50;99.90;;;;;;4933253;28;20192;-84
2022/01/05 04:41:46;;;;;;;0.80;0.80;;;1.50;99.90;;;;;;4923662;29;20459;-83
2022/01/05 04:44:12;;;;;;;0.90;0.90;;;1.40;99.90;;;;;;4947753;28;20704;-83
2022/01/05 04:46:37;;;;;;;0.87;0.87;;;1.30;99.90;;;;;;4951716;28;20194;-83
2022/01/05 04:49:04;;;;;;;0.80;0.80;;;1.30;99.90;;;;;;4951329;28;20194;-83
2022/01/05 04:51:30;;;;;;;0.77;0.70;;;1.30;99.90;;;;;;4952368;28;20210;-83
2022/01/05 04:53:55;;;;;;;0.70;0.70;;;1.40;99.90;;;;;;4952143;28;20454;-83
2022/01/05 04:56:21;;;;;;;0.70;0.70;;;1.50;99.90;;;;;;4946270;28;20198;-83
2022/01/05 04:58:46;;;;;;;0.70;0.70;;;1.60;99.90;;;;;;4950325;28;20199;-82
2022/01/05 05:01:12;;;;;;;0.70;0.70;;;1.60;99.90;;;;;;4932515;28;20609;-83
2022/01/05 05:03:38;;;;;;;0.77;0.77;;;1.70;99.90;;;;;;4951384;28;20199;-83
2022/01/05 05:06:03;;;;;;;0.70;0.70;;;1.70;99.90;;;;;;4951556;28;20290;-83
2022/01/05 05:08:29;;;;;;;0.70;0.70;;;1.70;99.90;;;;;;4932509;29;20202;-83
2022/01/05 05:10:54;;;;;;;0.70;0.70;;;1.70;99.90;;;;;;4943729;28;20234;-83
2022/01/05 05:13:20;;;;;;;0.70;0.70;;;1.70;99.90;;;;;;4932088;29;20178;-83
2022/01/05 05:15:48;;;;;;;0.70;0.70;;;1.80;99.90;;;;;;4944967;28;20196;-83
2022/01/05 05:18:14;;;;;;;0.77;0.77;;;1.80;99.90;;;;;;4946428;28;20191;-83
2022/01/05 05:20:40;;;;;;;0.70;0.70;;;1.80;99.90;;;;;;4933909;28;20460;-83
2022/01/05 05:23:06;;;;;;;0.70;0.60;;;1.80;99.90;;;;;;4932331;28;20352;-82
2022/01/05 05:25:32;;;;;;;1.27;1.17;;;1.80;99.90;;;;;;4953534;28;20558;-83
2022/01/05 05:27:57;;;;;;;0.80;0.80;;;1.80;99.90;;;;;;4947653;28;20605;-83
2022/01/05 05:30:23;;;;;;;0.70;0.70;;;1.80;99.90;;;;;;4946629;28;20261;-83
2022/01/05 05:32:48;;;;;;;0.70;0.63;;;1.90;99.90;;;;;;4931391;29;20200;-82
2022/01/05 05:35:14;;;;;;;0.70;0.70;;;1.90;99.90;;;;;;4948685;28;20229;-83
2022/01/05 05:37:40;;;;;;;0.70;0.70;;;1.90;99.90;;;;;;4930105;29;20184;-83
2022/01/05 05:40:06;;;;;;;0.70;0.70;;;1.90;99.90;;;;;;4932323;28;20550;-82
2022/01/05 05:42:32;;;;;;;0.73;0.70;;;2.00;99.90;;;;;;4933822;29;20261;-82
2022/01/05 05:44:57;;;;;;;0.80;0.80;;;2.00;99.90;;;;;;4921067;29;20455;-83
2022/01/05 05:47:23;;;;;;;0.70;0.67;;;2.10;99.90;;;;;;4944704;28;20191;-83
2022/01/05 05:49:49;;;;;;;0.70;0.60;;;2.10;99.90;;;;;;4946002;28;20706;-83
2022/01/05 05:52:15;;;;;;;0.70;0.70;;;2.10;99.90;;;;;;4947278;28;20190;-83
2022/01/05 05:54:41;;;;;;;0.70;0.70;;;2.10;99.90;;;;;;4948961;28;20793;-83
2022/01/05 05:57:07;;;;;;;0.70;0.60;;;2.20;99.90;;;;;;4943265;28;20526;-82
2022/01/05 05:59:32;;;;;;;0.70;0.70;;;2.20;99.90;;;;;;4943269;28;20217;-82
2022/01/05 06:01:58;;;;;;;0.70;0.60;;;2.20;99.90;;;;;;4939882;28;20242;-82
2022/01/05 06:04:24;;;;;;;0.70;0.70;;;2.20;99.90;;;;;;4942740;28;22015;-83
2022/01/05 06:06:49;;;;;;;0.70;0.70;;;2.20;99.90;;;;;;4946911;28;20195;-83
2022/01/05 06:09:15;;;;;;;0.70;0.70;;;2.30;99.90;;;;;;4925777;29;20195;-82
2022/01/05 06:11:40;;;;;;;0.70;0.60;;;2.30;99.90;;;;;;4940583;28;20202;-82
2022/01/05 06:14:06;;;;;;;0.70;0.70;;;2.30;99.90;;;;;;4930446;29;20189;-82
2022/01/05 06:16:31;;;;;;;0.70;0.60;;;2.30;99.90;;;;;;4938869;28;20182;-83
2022/01/05 06:18:57;;;;;;;0.70;0.60;;;2.30;99.90;;;;;;4945155;28;20191;-82
2022/01/05 06:21:22;;;;;;;0.70;0.70;;;2.30;99.90;;;;;;4946767;28;20220;-82
2022/01/05 06:23:48;;;;;;;0.80;0.80;;;2.30;99.90;;;;;;4951455;28;20187;-82
2022/01/05 06:26:13;;;;;;;0.70;0.70;;;2.30;99.90;;;;;;4924507;29;20706;-82
2022/01/05 06:28:39;;;;;;;0.70;0.70;;;2.20;99.90;;;;;;4947226;28;20672;-82
2022/01/05 06:31:04;;;;;;;0.70;0.60;;;2.20;99.90;;;;;;4944485;28;20262;-82
2022/01/05 06:33:30;;;;;;;0.70;0.60;;;2.20;99.90;;;;;;4947281;28;20262;-82
2022/01/05 06:35:55;;;;;;;0.77;0.77;;;2.20;99.90;;;;;;4928722;28;20307;-83
2022/01/05 06:38:21;;;;;;;0.70;0.70;;;2.20;99.90;;;;;;4957823;28;20213;-82
2022/01/05 06:40:46;;;;;;;0.70;0.60;;;2.20;99.90;;;;;;4951950;28;20218;-82
2022/01/05 06:43:13;;;;;;;0.80;0.80;;;2.30;99.90;;;;;;4944531;28;20192;-82
2022/01/05 06:45:39;;;;;;;0.70;0.70;;;2.20;99.90;;;;;;4931369;29;20204;-83
2022/01/05 06:48:05;;;;;;;0.80;0.80;;;2.30;99.90;;;;;;4953875;28;20442;-83
2022/01/05 06:50:30;;;;;;;0.80;0.80;;;2.30;99.90;;;;;;4946601;28;20310;-83
2022/01/05 06:52:56;;;;;;;0.73;0.73;;;2.30;99.90;;;;;;4934162;28;20282;-82
2022/01/05 06:55:22;;;;;;;0.70;0.60;;;2.30;99.90;;;;;;4951933;28;20195;-82
2022/01/05 06:57:48;;;;;;;0.80;0.80;;;2.30;99.90;;;;;;4945626;28;20198;-83
2022/01/05 07:00:15;;;;;;;0.70;0.70;;;2.30;99.90;;;;;;4930337;29;20438;-83
2022/01/05 07:02:40;;;;;;;0.80;0.80;;;2.20;99.90;;;;;;4941697;28;20879;-83
2022/01/05 07:05:07;;;;;;;0.80;0.80;;;2.20;99.90;;;;;;4948545;28;20457;-82
2022/01/05 07:07:32;;;;;;;0.70;0.70;;;2.20;99.90;;;;;;4951879;28;20265;-83
2022/01/05 07:09:58;;;;;;;0.70;0.70;;;2.30;99.90;;;;;;4945444;28;20946;-83
2022/01/05 07:12:24;;;;;;;0.70;0.70;;;2.30;99.90;;;;;;4944194;28;20648;-82
2022/01/05 07:14:49;;;;;;;0.70;0.70;;;2.30;99.90;;;;;;4949138;28;20198;-82
2022/01/05 07:17:15;;;;;;;0.70;0.70;;;2.30;99.90;;;;;;4943663;28;20191;-83
2022/01/05 07:19:40;;;;;;;0.70;0.60;;;2.30;99.90;;;;;;4946715;28;20301;-82
2022/01/05 07:22:06;;;;;;;0.70;0.70;;;2.30;99.90;;;;;;4945164;28;20194;-83
2022/01/05 07:24:31;;;;;;;0.80;0.80;;;2.30;99.90;;;;;;4947407;28;20187;-83
2022/01/05 07:26:57;;;;;;;0.70;0.60;;;2.30;99.90;;;;;;4932495;29;20209;-83
2022/01/05 07:29:23;;;;;;;0.70;0.70;;;2.30;99.90;;;;;;4944592;28;20231;-83
2022/01/05 07:31:48;;;;;;;0.70;0.70;;;2.30;99.90;;;;;;4929291;28;20226;-83
2022/01/05 07:34:15;;;;;;;0.70;0.70;;;2.40;99.90;;;;;;4932246;29;20246;-83
2022/01/05 07:36:40;;;;;;;0.70;0.70;;;2.40;99.90;;;;;;4955737;28;20198;-82
2022/01/05 07:39:07;;;;;;;0.80;0.80;;;2.40;99.90;;;;;;4951796;28;20445;-83
2022/01/05 07:41:33;;;;;;;0.70;0.70;;;2.40;99.90;;;;;;4930448;28;20270;-83
2022/01/05 07:43:59;;;;;;;0.80;0.80;;;2.60;99.90;;;;;;4949785;28;20534;-83
2022/01/05 07:46:25;;;;;;;0.70;0.60;;;2.50;99.90;;;;;;4948285;28;20546;-83
2022/01/05 07:48:51;;;;;;;0.70;0.70;;;2.50;99.90;;;;;;4950551;28;20206;-83
2022/01/05 07:51:16;;;;;;;0.70;0.70;;;2.40;99.90;;;;;;4947068;28;21209;-83
2022/01/05 07:53:42;;;;;;;0.70;0.70;;;2.40;99.90;;;;;;4929347;28;20191;-83
2022/01/05 07:56:08;;;;;;;0.70;0.70;;;2.30;99.90;;;;;;4931717;28;20197;-84
2022/01/05 07:58:35;;;;;;;1.00;1.00;;;2.30;99.90;;;;;;4939611;28;20205;-83
2022/01/05 08:01:02;;;;;;;0.70;0.70;;;2.40;99.90;;;;;;4924955;29;20521;-83
2022/01/05 08:03:28;;;;;;;0.90;0.90;;;2.40;99.90;;;;;;4946836;28;20474;-83
2022/01/05 08:05:53;;;;;;;0.73;0.73;;;2.40;99.90;;;;;;4950573;28;20488;-84
2022/01/05 08:08:19;;;;;;;0.70;0.70;;;2.30;99.90;;;;;;4931948;28;20206;-84
2022/01/05 08:10:44;;;;;;;0.70;0.70;;;2.40;99.90;;;;;;4942867;28;20234;-84
2022/01/05 08:13:10;;;;;;;0.70;0.70;;;2.30;99.90;;;;;;4949448;28;20205;-84
2022/01/05 08:15:35;;;;;;;0.77;0.77;;;2.30;99.90;;;;;;4925624;28;20198;-84
2022/01/05 08:18:01;;;;;;;0.90;0.83;;;2.30;99.90;;;;;;4946028;28;20206;-84
2022/01/05 08:20:26;;;;;;;0.80;0.80;;;2.30;99.90;;;;;;4949575;28;20651;-83
2022/01/05 08:22:53;;;;;;;0.77;0.77;;;2.40;99.90;;;;;;4946611;28;20223;-85
2022/01/05 08:25:20;;;;;;;0.70;0.70;;;2.40;99.90;;;;;;4945339;28;20241;-84
2022/01/05 08:27:47;;;;;;;0.80;0.80;;;2.40;99.90;;;;;;4940300;28;20445;-85
2022/01/05 08:30:19;;;;;;;0.70;0.70;;;2.40;99.90;;;;;;4946381;28;20584;-85
2022/01/05 08:32:46;;;;;;;0.80;0.80;;;2.30;99.90;;;;;;4935318;28;20446;-85
2022/01/05 08:35:13;;;;;;;0.70;0.70;;;2.30;99.90;;;;;;4946418;28;20454;-87
2022/01/05 08:37:44;;;;;;;0.70;0.70;;;2.30;99.90;;;;;;4933378;28;20447;-85
2022/01/05 08:40:14;;;;;;;0.70;0.70;;;2.30;99.90;;;;;;4919456;28;20462;-84
2022/01/05 08:42:40;;;;;;;0.70;0.70;;;2.30;99.90;;;;;;4941204;28;20457;-84
2022/01/05 08:45:06;;;;;;;0.70;0.70;;;2.20;99.90;;;;;;4940337;28;20929;-83
2022/01/05 08:47:32;;;;;;;0.70;0.67;;;2.20;99.90;;;;;;4925566;29;20453;-84
2022/01/05 08:49:58;;;;;;;0.70;0.70;;;2.20;99.90;;;;;;4946916;28;20488;-84
2022/01/05 08:52:24;;;;;;;0.70;0.60;;;2.20;99.90;;;;;;4953433;28;20570;-84
2022/01/05 08:54:49;;;;;;;0.77;0.77;;;2.20;99.90;;;;;;4949383;28;20872;-83
2022/01/05 08:57:16;;;;;;;0.70;0.60;;;2.20;99.90;;;;;;4946002;28;20261;-83
2022/01/05 08:59:43;;;;;;;0.70;0.70;;;2.20;99.90;;;;;;4918597;29;20194;-84
2022/01/05 09:02:08;;;;;;;0.70;0.60;;;2.20;99.90;;;;;;4936906;28;20486;-84
2022/01/05 09:04:34;;;;;;;0.70;0.70;;;2.20;99.90;;;;;;4937767;28;20534;-83
2022/01/05 09:07:00;;;;;;;0.70;0.60;;;2.20;99.90;;;;;;4919394;28;20195;-83
2022/01/05 09:09:26;;;;;;;0.70;0.70;;;2.20;99.90;;;;;;4942302;28;20609;-83
2022/01/05 09:11:52;;;;;;;0.70;0.70;;;2.30;99.90;;;;;;4925084;29;20951;-83
2022/01/05 09:14:17;;;;;;;1.27;1.27;;;2.30;99.90;;;;;;4947298;28;20446;-83
2022/01/05 09:16:43;;;;;;;0.80;0.80;;;2.30;99.90;;;;;;4925792;29;20966;-83
2022/01/05 09:19:08;;;;;;;0.70;0.70;;;2.30;99.90;;;;;;4947618;28;20205;-83
2022/01/05 09:21:34;;;;;;;0.70;0.70;;;2.40;99.90;;;;;;4931318;28;20205;-83
2022/01/05 09:24:00;;;;;;;0.77;0.77;;;2.40;99.90;;;;;;4946239;28;20194;-83
2022/01/05 09:26:25;;;;;;;0.70;0.70;;;2.40;99.90;;;;;;4949071;28;20201;-84
2022/01/05 09:28:50;;;;;;;0.70;0.70;;;2.50;99.90;;;;;;4931582;29;20235;-84
2022/01/05 09:31:16;;;;;;;0.70;0.70;;;2.50;99.90;;;;;;4950942;28;20309;-83
2022/01/05 09:33:41;;;;;;;0.70;0.70;;;2.50;99.90;;;;;;4941413;28;20685;-83
2022/01/05 09:36:57;;;;;;;0.70;0.70;;;2.60;99.90;;;;;;4921396;29;20273;-83
2022/01/05 09:41:57;;;;;;;0.70;0.60;;;2.70;99.90;;;;;;4943858;28;20550;-84
2022/01/05 09:44:37;;;;;;;0.80;0.80;;;2.80;99.90;;;;;;4945203;28;20469;-83
2022/01/05 09:47:03;;;;;;;0.70;0.60;;;2.80;99.90;;;;;;4930033;28;20454;-83
2022/01/05 09:49:34;;;;;;;0.70;0.60;;;2.80;99.90;;;;;;4938921;28;20447;-83
2022/01/05 09:52:07;;;;;;;0.70;0.60;;;2.90;99.90;;;;;;4949894;28;20199;-84
2022/01/05 09:54:42;;;;;;;0.70;0.63;;;2.90;99.90;;;;;;4944326;28;20446;-85
2022/01/05 09:57:09;;;;;;;0.70;0.60;;;2.90;99.90;;;;;;4942160;28;20546;-84
2022/01/05 09:59:35;;;;;;;0.70;0.60;;;3.00;99.90;;;;;;4937871;28;20449;-84
2022/01/05 10:02:02;;;;;;;0.70;0.70;;;3.00;99.90;;;;;;4941909;28;20501;-86
2022/01/05 10:04:29;;;;;;;0.70;0.60;;;3.10;99.90;;;;;;4926080;28;21364;-84
2022/01/05 10:06:54;;;;;;;0.70;0.60;;;3.20;99.90;;;;;;4947192;28;20454;-83
2022/01/05 10:09:20;;;;;;;0.70;0.70;;;3.20;99.90;;;;;;4943050;28;20884;-85
2022/01/05 10:11:46;;;;;;;0.70;0.60;;;3.30;99.90;;;;;;4923032;29;20198;-86
2022/01/05 10:14:15;;;;;;;0.80;0.80;;;3.20;99.90;;;;;;4935190;29;20186;-86
2022/01/05 10:16:41;;;;;;;0.80;0.80;;;3.20;99.90;;;;;;4935022;28;20213;-85
2022/01/05 10:19:08;;;;;;;0.70;0.60;;;3.10;99.90;;;;;;4930907;29;20449;-85
2022/01/05 10:21:39;;;;;;;0.70;0.60;;;3.10;99.90;;;;;;4939423;28;20888;-85
2022/01/05 10:24:05;;;;;;;0.70;0.70;;;3.10;99.90;;;;;;4946771;28;20955;-85
2022/01/05 10:26:33;;;;;;;0.70;0.70;;;3.10;99.90;;;;;;4945261;28;20450;-85
2022/01/05 10:29:23;;;;;;;0.80;0.80;;;3.10;99.90;;;;;;4950109;28;20478;-85
2022/01/05 10:31:53;;;;;;;0.80;0.80;;;3.10;99.90;;;;;;4938096;28;20454;-85
2022/01/05 10:34:27;;;;;;;0.70;0.70;;;3.10;99.90;;;;;;4941669;28;20514;-84
2022/01/05 10:36:58;;;;;;;0.80;0.70;;;3.20;99.90;;;;;;4939292;28;20445;-84
2022/01/05 10:39:32;;;;;;;0.70;0.70;;;3.10;99.90;;;;;;4942291;28;20434;-84
2022/01/05 10:42:10;;;;;;;0.70;0.60;;;3.10;99.90;;;;;;4939682;28;21158;-84
2022/01/05 10:44:36;;;;;;;0.70;0.70;;;3.10;99.90;;;;;;4926892;28;20682;-84
2022/01/05 10:47:05;;;;;;;0.70;0.70;;;3.00;99.90;;;;;;4945345;28;20461;-84
2022/01/05 10:49:36;;;;;;;0.80;0.70;;;2.90;99.90;;;;;;4924305;28;20438;-85
2022/01/05 10:52:23;;;;;;;0.77;0.70;;;2.90;99.90;;;;;;4922246;29;20454;-83
2022/01/05 10:54:49;;;;;;;0.80;0.80;;;2.90;99.90;;;;;;4945975;28;21207;-86
2022/01/05 10:57:16;;;;;;;0.80;0.80;;;2.90;99.90;;;;;;4948183;28;20442;-87
2022/01/05 10:59:48;;;;;;;0.70;0.60;;;2.80;99.90;;;;;;4936030;28;20445;-86
2022/01/05 11:02:31;;;;;;;0.70;0.60;;;2.80;99.90;;;;;;4930253;29;20438;-87
2022/01/05 11:05:05;;;;;;;0.80;0.80;;;2.90;99.90;;;;;;4948520;28;20433;-86
2022/01/05 11:07:32;;;;;;;0.70;0.60;;;2.90;99.90;;;;;;4930456;28;20553;-87
2022/01/05 11:10:05;;;;;;;0.80;0.80;;;3.00;99.90;;;;;;4952685;28;20473;-86
2022/01/05 11:12:40;;;;;;;0.70;0.70;;;3.00;99.90;;;;;;4924241;29;20443;-86
2022/01/05 11:15:30;;;;;;;0.80;0.70;;;3.00;99.90;;;;;;4934421;29;20981;-86
2022/01/05 11:18:13;;;;;;;2.07;1.90;;;3.00;99.90;;;;;;4929221;28;20450;-85
2022/01/05 11:20:57;;;;;;;0.70;0.70;;;3.10;99.90;;;;;;4948358;28;20528;-86
2022/01/05 11:23:25;;;;;;;0.80;0.80;;;3.10;99.90;;;;;;4948277;28;20958;-87
2022/01/05 11:25:53;;;;;;;0.80;0.70;;;3.00;99.90;;;;;;4926925;29;20443;-86
2022/01/05 11:28:21;;;;;;;0.70;0.70;;;3.00;99.90;;;;;;4931864;28;21358;-85
2022/01/05 11:30:49;;;;;;;0.80;0.73;;;3.10;99.90;;;;;;4952328;28;20533;-85
2022/01/05 11:33:15;;;;;;;0.70;0.60;;;3.00;99.90;;;;;;4928862;28;20505;-85
2022/01/05 11:35:42;;;;;;;0.70;0.60;;;3.10;99.90;;;;;;4932015;29;20435;-86
2022/01/05 11:38:08;;;;;;;0.70;0.70;;;3.00;99.90;;;;;;4927076;29;20437;-85
2022/01/05 11:40:36;;;;;;;0.80;0.73;;;3.10;99.90;;;;;;4925506;28;20533;-84
2022/01/05 11:43:13;;;;;;;0.70;0.70;;;3.20;99.90;;;;;;4947743;28;20862;-85
2022/01/05 11:45:45;;;;;;;0.73;0.70;;;3.30;99.90;;;;;;4931731;29;20470;-85
2022/01/05 11:48:29;;;;;;;0.70;0.70;;;3.40;99.90;;;;;;4943674;28;20431;-85
2022/01/05 11:51:01;;;;;;;0.80;0.70;;;3.40;99.90;;;;;;4952963;28;20498;-85
2022/01/05 11:53:45;;;;;;;0.80;0.70;;;3.30;99.90;;;;;;4955407;28;20446;-84
2022/01/05 11:56:21;;;;;;;0.70;0.70;;;3.30;99.90;;;;;;4933486;28;20819;-84
2022/01/05 11:59:02;;;;;;;0.80;0.70;;;3.30;99.90;;;;;;4931429;29;20453;-84
2022/01/05 12:01:32;;;;;;;0.80;0.70;;;3.30;99.90;;;;;;4935594;29;20453;-84
2022/01/05 12:03:57;;;;;;;0.70;0.70;;;3.30;99.90;;;;;;4917526;29;20490;-84
2022/01/05 12:06:29;;;;;;;0.70;0.70;;;3.30;99.90;;;;;;4925952;28;20489;-83
2022/01/05 12:08:56;;;;;;;0.70;0.60;;;3.40;99.90;;;;;;4931580;29;20262;-84
2022/01/05 12:11:30;;;;;;;0.70;0.70;;;3.40;99.90;;;;;;4923826;29;20497;-84
2022/01/05 12:13:57;;;;;;;0.70;0.70;;;3.50;99.90;;;;;;4941943;28;20559;-84
2022/01/05 12:16:23;;;;;;;0.70;0.67;;;3.50;99.90;;;;;;4947985;28;20447;-84
2022/01/05 12:19:07;;;;;;;0.80;0.80;;;3.50;99.90;;;;;;4941179;28;20958;-83
2022/01/05 12:21:50;;;;;;;1.00;0.90;;;3.50;99.90;;;;;;4945880;28;20242;-85
2022/01/05 12:24:16;;;;;;;0.70;0.70;;;3.50;99.90;;;;;;4950880;28;20450;-84
2022/01/05 12:26:43;;;;;;;0.70;0.67;;;3.60;99.90;;;;;;4938260;29;20449;-84
2022/01/05 12:29:10;;;;;;;0.70;0.70;;;3.60;99.90;;;;;;4949463;28;20531;-84
2022/01/05 12:31:47;;;;;;;0.70;0.70;;;3.60;99.90;;;;;;4932573;29;20497;-84
2022/01/05 12:34:56;;;;;;;0.70;0.60;;;3.60;99.90;;;;;;4934794;29;20458;-84
2022/01/05 12:37:47;;;;;;;0.70;0.70;;;3.70;99.90;;;;;;4950008;28;20529;-84
2022/01/05 12:40:35;;;;;;;0.70;0.70;;;3.70;99.90;;;;;;4930578;29;20447;-84
2022/01/05 12:43:10;;;;;;;0.73;0.70;;;3.70;99.90;;;;;;4932293;28;20489;-84
2022/01/05 12:45:54;;;;;;;0.80;0.70;;;3.80;99.90;;;;;;4949705;28;20445;-84
2022/01/05 12:48:39;;;;;;;0.80;0.70;;;3.80;99.90;;;;;;4945877;28;20461;-84
2022/01/05 12:51:11;;;;;;;0.70;0.63;;;3.80;99.90;;;;;;4928424;28;22457;-84
2022/01/05 12:53:48;;;;;;;0.70;0.70;;;3.90;99.90;;;;;;4923569;28;20967;-83
2022/01/05 12:56:22;;;;;;;0.70;0.63;;;3.90;99.90;;;;;;4930995;29;20914;-84
2022/01/05 12:58:51;;;;;;;0.80;0.70;;;4.00;99.90;;;;;;4940284;28;20446;-83
2022/01/05 13:01:19;;;;;;;0.70;0.60;;;4.00;99.90;;;;;;4940165;28;20451;-85
2022/01/05 13:03:45;;;;;;;0.73;0.60;;;4.00;99.90;;;;;;4934136;29;21182;-84
2022/01/05 13:06:18;;;;;;;0.70;0.70;;;4.10;99.90;;;;;;4933871;28;20434;-84
2022/01/05 13:09:12;;;;;;;0.70;0.60;;;4.10;99.90;;;;;;4950913;28;20204;-84
2022/01/05 13:11:46;;;;;;;0.80;0.70;;;4.20;99.90;;;;;;4948085;28;20494;-84
2022/01/05 13:14:20;;;;;;;0.80;0.70;;;4.20;99.90;;;;;;4929410;29;20433;-84
2022/01/05 13:16:55;;;;;;;0.70;0.70;;;4.20;99.90;;;;;;4931277;29;20974;-84